Latest Weather Observations for Whyalla

IDS60801

Issued at 7:12 am CST Tuesday 7 July 2020 (issued every 10 minutes, with the page automatically refreshed every 10 minutes)

About weather observations | Map of weather stations | Latest weather observations for SA | Other Formats
Station Details ID: 018120 Name: WHYALLA AERO Lat: -33.05 Lon: 137.52 Height: 9.3 m
Data from the previous 72 hours. | See also: Recent months at Whyalla
Date/Time
CST
Temp
°C
App
Temp
°C
Dew
Point
°C
Rel
Hum
%
Delta-T
°C
Wind Press
QNH
hPa
Press
MSL
hPa
Rain since
9am
mm
Dir  Spd
km/h
Gust
km/h
Spd
kts
Gust
kts
07/07:00am 0.3 -3.4 -0.1 97 0.1 NW 9 13 5 7 1031.0 1031.0 0.0
07/06:30am 0.5 -3.2 0.1 97 0.1 NW 9 11 5 6 1030.7 1030.7 0.0
07/06:00am 0.3 -3.4 -0.1 97 0.1 NW 9 11 5 6 1030.6 1030.6 0.0
07/05:30am 0.3 -3.4 -0.1 97 0.1 NW 9 11 5 6 1030.5 1030.5 0.0
07/05:00am 0.9 -3.1 0.5 97 0.1 NW 11 13 6 7 1030.5 1030.5 0.0
07/04:30am 0.7 -3.4 0.1 96 0.2 NW 11 13 6 7 1030.4 1030.4 0.0
07/04:00am 1.2 -2.4 0.6 96 0.2 NW 9 11 5 6 1030.5 1030.5 0.0
07/03:30am 1.2 -2.4 0.6 96 0.2 NW 9 9 5 5 1030.4 1030.4 0.0
07/03:00am 1.8 -1.3 1.1 95 0.3 NW 7 9 4 5 1030.4 1030.4 0.0
07/02:30am 2.0 -1.1 1.1 94 0.3 NW 7 9 4 5 1030.4 1030.4 0.0
07/02:00am 2.2 -1.0 1.0 92 0.5 NNE 7 11 4 6 1030.4 1030.4 0.0
07/01:30am 3.2 0.1 1.3 87 0.7 N 7 9 4 5 1030.6 1030.6 0.0
07/01:00am 6.1 3.9 5.1 93 0.4 N 6 9 3 5 1030.6 1030.6 0.0
07/12:30am 4.9 2.3 4.3 96 0.3 NE 7 11 4 6 1030.9 1030.9 0.0
07/12:00am 2.8 0.0 1.8 93 0.4 N 6 13 3 7 1031.4 1031.4 0.0
 
Date/Time
CST
Temp
°C
App
Temp
°C
Dew
Point
°C
Rel
Hum
%
Delta-T
°C
Wind Press
QNH
hPa
Press
MSL
hPa
Rain since
9am
mm
Dir  Spd
km/h
Gust
km/h
Spd
kts
Gust
kts
06/11:30pm 2.9 0.0 1.7 92 0.5 WNW 6 7 3 4 1031.5 1031.5 0.0
06/11:00pm 3.4 1.8 2.2 92 0.5 CALM 0 0 0 0 1031.6 1031.6 0.0
06/10:30pm 3.8 1.0 2.2 89 0.6 WNW 6 7 3 4 1031.6 1031.6 0.0
06/10:00pm 5.5 2.1 2.0 78 1.4 ESE 9 13 5 7 1031.6 1031.6 0.0
06/09:30pm 10.2 7.4 8.6 90 0.8 SSE 13 17 7 9 1031.5 1031.5 0.0
06/09:11pm 9.5 6.8 9.0 97 0.2 SSE 13 20 7 11 1031.6 1031.6 0.0
06/09:00pm 4.5 2.2 2.7 88 0.7 SSE 4 9 2 5 1031.7 1031.7 0.0
06/08:30pm 4.7 2.0 2.6 86 0.8 WSW 6 7 3 4 1031.9 1031.9 0.0
06/08:00pm 5.5 2.6 2.8 83 1.1 SW 7 9 4 5 1031.9 1031.9 0.0
06/07:30pm 6.8 4.4 4.3 84 1.1 SW 6 6 3 3 1031.7 1031.7 0.0
06/07:00pm 7.6 4.7 4.6 81 1.3 SSW 9 9 5 5 1031.9 1031.9 0.0
06/06:30pm 8.3 5.4 4.7 78 1.6 SSW 9 11 5 6 1031.6 1031.6 0.0
06/06:00pm 9.2 6.4 5.0 75 1.9 SSW 9 9 5 5 1031.6 1031.6 0.0
06/05:30pm 10.4 7.7 5.6 72 2.2 S 9 11 5 6 1031.5 1031.5 0.0
06/05:00pm 11.5 8.1 5.8 68 2.6 S 13 17 7 9 1031.5 1031.5 0.0
06/04:30pm 12.1 9.0 5.7 65 3.0 S 11 15 6 8 1031.6 1031.6 0.0
06/04:00pm 12.5 9.1 5.9 64 3.1 S 13 17 7 9 1031.5 1031.5 0.0
06/03:30pm 12.3 8.9 5.7 64 3.1 SSE 13 19 7 10 1031.6 1031.6 0.0
06/03:00pm 12.9 9.2 6.3 64 3.1 SE 15 22 8 12 1031.6 1031.6 0.0
06/02:30pm 12.5 8.7 5.9 64 3.1 SSE 15 19 8 10 1031.6 1031.6 0.0
06/02:00pm 12.3 8.5 5.7 64 3.1 SE 15 22 8 12 1031.7 1031.7 0.0
06/01:30pm 12.0 8.2 5.6 65 2.9 SE 15 20 8 11 1031.9 1031.9 0.0
06/01:00pm 12.1 8.3 5.9 66 2.9 SE 15 19 8 10 1032.0 1032.0 0.0
06/12:30pm 11.9 7.8 6.4 69 2.6 SE 17 22 9 12 1032.3 1032.3 0.0
06/12:00pm 11.8 7.8 6.7 71 2.4 SE 17 22 9 12 1032.7 1032.7 0.0
06/11:30am 12.3 8.7 6.6 68 2.7 ESE 15 20 8 11 1033.1 1033.1 0.0
06/11:00am 12.0 8.7 6.5 69 2.6 ESE 13 19 7 10 1033.3 1033.3 0.0
06/10:30am 11.9 8.9 7.6 75 2.1 ESE 13 17 7 9 1033.5 1033.5 0.0
06/10:00am 10.8 8.6 7.7 81 1.5 ESE 9 15 5 8 1033.5 1033.5 0.0
06/09:30am 10.3 8.5 8.1 86 1.1 SSE 7 11 4 6 1033.5 1033.5 0.0
06/09:00am 9.9 7.5 8.7 92 0.6 SSE 11 15 6 8 1033.3 1033.3 0.2
06/08:30am 8.8 7.2 7.9 94 0.4 SSW 6 7 3 4 1033.1 1033.1 0.2
06/08:00am 8.1 6.1 7.3 95 0.4 WSW 7 9 4 5 1032.8 1032.8 0.2
06/07:30am 8.0 5.6 7.1 94 0.4 WSW 9 11 5 6 1032.7 1032.7 0.2
06/07:00am 8.7 7.0 7.6 93 0.5 S 6 7 3 4 1032.5 1032.5 0.2
06/06:30am 9.0 7.4 8.1 94 0.4 SSE 6 9 3 5 1032.1 1032.1 0.2
06/06:00am 8.7 6.9 7.9 95 0.4 SE 7 11 4 6 1031.7 1031.7 0.2
06/05:30am 7.8 5.1 7.4 97 0.2 SE 11 13 6 7 1031.3 1031.3 0.2
06/05:00am 5.0 2.4 4.4 96 0.3 SSE 7 9 4 5 1031.3 1031.3 0.2
06/04:47am 5.2 2.7 4.6 96 0.3 SSE 7 7 4 4 1031.2 1031.2 0.2
06/04:30am 5.4 4.2 4.8 96 0.3 CALM 0 0 0 0 1031.2 1031.2 0.2
06/04:00am 5.7 3.5 5.3 97 0.2 SW 6 6 3 3 1031.4 1031.4 0.2
06/03:30am 5.7 3.5 5.3 97 0.2 W 6 7 3 4 1031.4 1031.4 0.2
06/03:00am 5.4 2.9 4.8 96 0.3 NW 7 9 4 5 1031.5 1031.5 0.2
06/02:30am 5.5 3.3 5.1 97 0.2 NW 6 9 3 5 1031.5 1031.5 0.2
06/02:14am 5.3 2.8 4.7 96 0.3 NW 7 9 4 5 1031.5 1031.5 0.2
06/02:00am 5.3 2.8 4.7 96 0.3 NW 7 9 4 5 1031.5 1031.5 0.2
06/01:30am 5.1 2.5 4.4 95 0.3 WNW 7 9 4 5 1031.6 1031.6 0.2
06/01:00am 6.3 5.3 5.6 95 0.3 CALM 0 0 0 0 1031.7 1031.7 0.2
06/12:30am 7.0 5.0 6.3 95 0.3 SW 6 7 3 4 1031.7 1031.7 0.2
06/12:09am 7.8 6.0 7.2 96 0.3 SW 6 7 3 4 1031.7 1031.7 0.2
06/12:00am 7.2 5.2 6.3 94 0.4 SW 6 7 3 4 1031.7 1031.7 0.2
 
Date/Time
CST
Temp
°C
App
Temp
°C
Dew
Point
°C
Rel
Hum
%
Delta-T
°C
Wind Press
QNH
hPa
Press
MSL
hPa
Rain since
9am
mm
Dir  Spd
km/h
Gust
km/h
Spd
kts
Gust
kts
05/11:54pm 7.4 5.5 6.5 94 0.4 SW 6 7 3 4 1031.7 1031.7 0.2
05/11:51pm 7.7 5.9 7.0 95 0.3 SW 6 9 3 5 1031.7 1031.7 0.2
05/11:30pm 8.0 6.0 7.2 95 0.4 SW 7 9 4 5 1031.8 1031.8 0.2
05/11:23pm 7.6 5.1 6.7 94 0.4 SW 9 9 5 5 1031.8 1031.8 0.2
05/11:00pm 8.2 6.2 7.3 94 0.4 SW 7 9 4 5 1031.8 1031.8 0.2
05/10:30pm 8.3 5.9 7.2 93 0.5 SW 9 11 5 6 1031.7 1031.7 0.2
05/10:00pm 9.1 6.9 8.0 93 0.5 SSW 9 13 5 7 1031.6 1031.6 0.2
05/09:30pm 10.1 8.5 8.7 91 0.7 SSW 7 9 4 5 1031.3 1031.3 0.2
05/09:00pm 11.1 9.3 9.5 90 0.8 S 9 11 5 6 1031.3 1031.3 0.2
05/08:30pm 11.6 10.0 10.2 91 0.7 S 9 11 5 6 1031.3 1031.3 0.2
05/08:00pm 11.5 9.9 10.1 91 0.7 S 9 11 5 6 1031.1 1031.1 0.2
05/07:30pm 11.7 10.1 10.1 90 0.8 S 9 11 5 6 1030.9 1030.9 0.2
05/07:00pm 11.7 10.6 10.1 90 0.8 SSW 6 9 3 5 1030.9 1030.9 0.2
05/06:30pm 11.8 10.5 9.9 88 1.0 S 7 9 4 5 1030.6 1030.6 0.2
05/06:00pm 12.5 10.2 10.4 87 1.1 S 13 17 7 9 1030.5 1030.5 0.2
05/05:30pm 12.8 10.8 10.3 85 1.3 S 11 13 6 7 1030.3 1030.3 0.2
05/05:00pm 13.0 10.4 10.7 86 1.2 SSE 15 19 8 10 1030.3 1030.3 0.2
05/04:30pm 13.0 9.6 10.7 86 1.2 S 19 22 10 12 1030.2 1030.2 0.2
05/04:00pm 14.1 10.9 9.9 76 2.2 S 17 22 9 12 1030.0 1030.0 0.2
05/03:30pm 14.1 11.1 10.5 79 1.9 S 17 20 9 11 1029.9 1029.9 0.2
05/03:00pm 13.5 10.5 10.5 82 1.6 SSE 17 20 9 11 1030.2 1030.2 0.2
05/02:30pm 13.5 10.1 10.7 83 1.5 SSE 19 24 10 13 1030.3 1030.3 0.2
05/02:00pm 14.2 9.9 10.6 79 1.9 S 24 32 13 17 1030.4 1030.4 0.2
05/01:30pm 14.6 11.3 10.8 78 2.0 SSE 19 24 10 13 1030.6 1030.6 0.2
05/01:00pm 14.5 11.3 9.9 74 2.4 SSE 17 24 9 13 1030.7 1030.7 0.2
05/12:30pm 14.4 11.6 10.0 75 2.3 SSE 15 22 8 12 1031.2 1031.2 0.2
05/12:00pm 14.3 11.8 9.7 74 2.4 SSE 13 22 7 12 1031.7 1031.7 0.2
05/11:30am 14.3 11.1 9.9 75 2.3 S 17 22 9 12 1032.1 1032.1 0.2
05/11:00am 14.0 10.8 10.0 77 2.1 SSE 17 24 9 13 1032.3 1032.3 0.2
05/10:30am 13.6 10.2 9.3 75 2.2 S 17 24 9 13 1032.5 1032.5 0.2
05/10:00am 14.0 11.4 9.2 73 2.4 S 13 19 7 10 1032.6 1032.6 0.2
05/09:30am 13.4 12.1 9.1 75 2.2 SW 6 9 3 5 1032.2 1032.2 0.2
05/09:00am 12.7 10.8 9.2 79 1.8 SW 9 11 5 6 1032.1 1032.1 0.2
05/08:30am 11.9 10.0 9.1 83 1.4 WSW 9 13 5 7 1031.8 1031.8 0.2
05/08:00am 11.5 10.2 9.1 85 1.2 SW 6 11 3 6 1031.5 1031.5 0.2
05/07:30am 11.4 9.9 9.0 85 1.2 WSW 7 11 4 6 1031.5 1031.5 0.2
05/07:00am 11.4 9.5 9.1 86 1.1 SW 9 11 5 6 1031.3 1031.3 0.2
05/06:30am 11.1 10.6 9.2 88 0.9 SW 2 7 1 4 1031.1 1031.1 0.2
05/06:00am 11.1 9.3 9.4 89 0.8 WSW 9 17 5 9 1030.9 1030.9 0.2
05/05:30am 11.0 8.8 9.4 90 0.8 SW 11 13 6 7 1030.8 1030.8 0.2
05/05:00am 10.7 8.5 9.5 92 0.6 WSW 11 13 6 7 1030.9 1030.9 0.2
05/04:30am 10.6 9.2 9.5 93 0.5 SW 7 9 4 5 1031.0 1031.0 0.2
05/04:00am 10.5 9.1 9.7 95 0.4 SW 7 9 4 5 1031.2 1031.2 0.2
05/03:30am 10.4 10.4 9.8 96 0.3 CALM 0 7 0 4 1031.4 1031.4 0.2
05/03:00am 10.4 10.4 9.8 96 0.3 CALM 0 0 0 0 1031.5 1031.5 0.2
05/02:30am 10.5 10.5 9.9 96 0.3 CALM 0 0 0 0 1031.6 1031.6 0.2
05/02:00am 10.6 10.2 9.8 95 0.4 SW 2 4 1 2 1031.7 1031.7 0.2
05/01:54am 10.7 10.0 9.9 95 0.4 SW 4 6 2 3 1031.7 1031.7 0.2
05/01:30am 10.7 8.6 9.9 95 0.4 SSW 11 13 6 7 1031.7 1031.7 0.2
05/01:27am 10.7 8.6 9.8 94 0.5 SSW 11 13 6 7 1031.7 1031.7 0.2
05/01:11am 10.5 9.1 9.6 94 0.5 S 7 9 4 5 1031.7 1031.7 0.2
05/01:01am 10.2 8.3 9.1 93 0.5 SSW 9 13 5 7 1031.7 1031.7 0.2
05/01:00am 10.2 8.3 9.1 93 0.5 SSW 9 13 5 7 1031.7 1031.7 0.2
05/12:48am 9.6 8.1 8.5 93 0.5 WSW 6 9 3 5 1031.7 1031.7 0.2
05/12:30am 9.6 8.1 8.5 93 0.5 NW 6 6 3 3 1031.7 1031.7 0.2
05/12:00am 9.5 7.8 8.4 93 0.5 NW 7 7 4 4 1031.8 1031.8 0.2
 
Date/Time
CST
Temp
°C
App
Temp
°C
Dew
Point
°C
Rel
Hum
%
Delta-T
°C
Wind Press
QNH
hPa
Press
MSL
hPa
Rain since
9am
mm
Dir  Spd
km/h
Gust
km/h
Spd
kts
Gust
kts
04/11:30pm 9.2 7.5 8.4 95 0.4 WNW 7 9 4 5 1032.0 1032.0 0.2
04/11:00pm 8.7 6.9 8.1 96 0.3 NW 7 9 4 5 1032.0 1032.0 0.2
04/10:30pm 7.9 5.9 7.1 95 0.4 WNW 7 9 4 5 1032.0 1032.0 0.2
04/10:00pm 8.6 6.4 7.8 95 0.4 W 9 11 5 6 1032.2 1032.2 0.2
04/09:30pm 8.9 6.4 8.1 95 0.4 W 11 13 6 7 1032.3 1032.3 0.2
04/09:00pm 9.3 7.6 8.5 95 0.4 NW 7 9 4 5 1032.3 1032.3 0.2
04/08:30pm 9.4 7.4 8.6 95 0.4 WNW 9 9 5 5 1032.2 1032.2 0.2
04/08:00pm 9.7 8.7 8.8 94 0.4 WSW 4 9 2 5 1032.0 1032.0 0.2
04/07:30pm 9.3 7.2 8.1 92 0.6 SW 9 11 5 6 1031.8 1031.8 0.2
04/07:00pm 10.1 8.1 8.5 90 0.8 SSW 9 9 5 5 1031.8 1031.8 0.2
04/06:30pm 11.3 9.9 9.6 89 0.8 WSW 7 9 4 5 1031.6 1031.6 0.2
04/06:00pm 12.1 10.4 10.0 87 1.1 WSW 9 15 5 8 1031.5 1031.5 0.2
04/05:30pm 12.4 11.2 10.3 87 1.1 SSW 7 11 4 6 1031.5 1031.5 0.2
04/05:00pm 12.4 10.4 10.3 87 1.1 SSW 11 15 6 8 1031.6 1031.6 0.2
04/04:30pm 12.8 10.4 10.2 84 1.3 S 13 17 7 9 1031.5 1031.5 0.2
04/04:00pm 13.1 10.2 9.7 80 1.7 SSE 15 19 8 10 1031.4 1031.4 0.2
04/03:30pm 13.6 10.7 9.5 76 2.1 SSE 15 20 8 11 1031.3 1031.3 0.2
04/03:00pm 13.6 11.4 9.3 75 2.2 S 11 17 6 9 1031.3 1031.3 0.2
04/02:30pm 13.2 11.4 9.6 79 1.8 SE 9 13 5 7 1031.4 1031.4 0.2
04/02:00pm 13.6 12.2 9.5 76 2.1 ESE 7 13 4 7 1031.5 1031.5 0.2
04/01:34pm 13.4 12.3 9.8 79 1.8 SE 6 15 3 8 1031.8 1031.8 0.2
04/01:30pm 13.2 12.0 9.6 79 1.8 SE 6 15 3 8 1031.8 1031.8 0.2
04/01:00pm 12.4 10.5 9.2 81 1.6 SSE 9 15 5 8 1032.3 1032.3 0.2
04/12:54pm 12.6 10.7 9.2 80 1.7 SE 9 15 5 8 1032.3 1032.3 0.2
04/12:44pm 12.9 11.3 10.1 83 1.4 ESE 9 13 5 7 1032.5 1032.5 0.2
04/12:30pm 12.4 10.7 9.8 84 1.3 ESE 9 13 5 7 1032.6 1032.6 0.2
04/12:00pm 11.9 10.2 10.0 88 1.0 ESE 9 13 5 7 1032.9 1032.9 0.2
04/11:30am 11.4 9.4 10.1 92 0.7 E 11 15 6 8 1033.3 1033.3 0.2
04/11:09am 11.8 10.3 10.7 93 0.6 E 9 13 5 7 1033.4 1033.4 0.2
04/11:00am 11.5 10.6 10.6 94 0.5 ESE 6 9 3 5 1033.5 1033.5 0.2
04/10:30am 11.3 9.7 10.2 93 0.6 S 9 13 5 7 1033.6 1033.6 0.0
04/10:28am 11.3 10.1 10.2 93 0.6 S 7 13 4 7 1033.6 1033.6 0.0
04/10:21am 11.7 11.1 10.4 92 0.7 SSW 4 9 2 5 1033.5 1033.5 0.0
04/10:05am 11.1 10.2 10.5 96 0.3 W 6 7 3 4 1033.5 1033.5 0.0
04/10:00am 10.8 9.7 10.0 95 0.4 W 6 7 3 4 1033.4 1033.4 0.0
04/09:30am 11.4 10.9 10.6 95 0.4 E 4 7 2 4 1033.2 1033.2 0.0
04/09:14am 10.6 9.9 10.1 97 0.3 ENE 4 7 2 4 1033.0 1033.0 0.0
04/09:00am 10.0 8.6 9.5 97 0.2 E 7 11 4 6 1032.9 1032.9 0.4
04/08:50am 10.0 8.3 9.7 98 0.2 ESE 9 13 5 7 1032.8 1032.8 0.4
04/08:43am 9.9 8.1 9.4 97 0.2 E 9 13 5 7 1032.8 1032.8 0.4
04/08:30am 9.7 8.5 9.4 98 0.1 ESE 6 9 3 5 1032.6 1032.6 0.4
04/08:22am 9.5 8.6 9.2 98 0.1 SSE 4 6 2 3 1032.6 1032.6 0.4
04/08:21am 9.5 8.6 9.2 98 0.1 S 4 6 2 3 1032.6 1032.6 0.4
04/08:00am 9.1 7.1 8.6 97 0.2 SSW 9 13 5 7 1032.2 1032.2 0.4
04/07:32am 9.0 7.0 8.6 97 0.2 SW 9 13 5 7 1032.0 1032.0 0.4
04/07:30am 9.0 6.6 8.6 97 0.2 SW 11 15 6 8 1032.0 1032.0 0.4
04/07:22am 9.2 7.2 8.7 97 0.2 SW 9 15 5 8 1032.0 1032.0 0.4

Other formats

Comma delimited format used in spreadsheet applications
http://www.bom.gov.au/fwo/IDS60801/IDS60801.95664.axf

JavaScript Object Notation format (JSON) in row-major order
http://www.bom.gov.au/fwo/IDS60801/IDS60801.95664.json

Data quality

Most of these data are generated automatically and are frequently updated. Quality checks on data are not normally performed. It is possible for incorrect values to appear. Refer to information at About Latest Weather Observations and please check the disclaimer before using these data.